Flat Springs, North Carolina
Current Conditions -  °F | °C
As of 3:55 PM on Thursday 20 Nov 2014 (Local Time) from KTNB Reporting Station
Clear Clear  
Wind Chill: 32°   Ceiling: Unl
Heat Index: 40°   Visibility: 10mi
Dew Point: 21°   Wind: 17mph
Humidity: 45%   Direction: 300°WNW
Pressure: 30.03"   Gusts: 24mph
Location:  36.1731°N, 81.9572°W
Report Text: KTNB 202055Z AUTO 30015G21KT 10SM CLR 05/M06 A3003 RMK AO2 T00471063
Loading
Personal Weather Stations






























Interactive Weather Map New forecast layout! Learn more

10-Day Weather Forecast

Advertisements
Track Severe Weather on mobile